WXM80 ListenWXM80 Stop

You find our weather info also at:

UK Metoffice

WeatherCloud

Weather Underground

Northeastern Weather Network

AWEKAS

Citizen Weather Observer Program (CWOP)

HAMweather, WeatherForYou, PWS Weather


Weather Underground History page Text

Daily Summary for September 4, 2017 Units:  Both    English   Metric
« Previous Day
Next Day »
Daily Weekly Monthly Yearly Custom
  High: Low: Average:
Temperature: 84.9 °F /  29.4 °C 61.3 °F /  16.3 °C 71 °F /  21.7 °C
Dew Point: 65.1 °F /  18.4 °C 57.9 °F /  14.4 °C 61.6 °F /  16.4 °C
Humidity: 91 % 47 % 74 %
Wind Speed: 6.7 mph /  10.8 km/h - 2.1 mph /  3.4 km/h
Wind Gust: 12.0 mph /  19.3 km/h - -
Wind:- - SW
Pressure: 29.92 in /  1013.1 hPa 29.79 in /  1008.7 hPa -
Precipitation: 0.00 in /  0 mm    
Historical Graphs
 
 
Tabular Data for September 4, 2017
Time Temperature Dew Point Pressure Wind Wind Speed Wind Gust Humidity Rainfall Rate (Hourly)
00:00 65.0 °F /  18.3 °C 60.0 °F /  15.6 °C 29.85 in /  1010.7 hPa WSW 0.5 mph /  0.8 km/h 6.9 mph /  11.1 km/h 84 % 0.00 in /  0 mm
00:05 65.0 °F /  18.3 °C 60.0 °F /  15.6 °C 29.85 in /  1010.7 hPa WSW 3.8 mph /  6.1 km/h 5.8 mph /  9.3 km/h 84 % 0.00 in /  0 mm
00:10 65.0 °F /  18.3 °C 60.0 °F /  15.6 °C 29.85 in /  1010.7 hPa WSW 4.4 mph /  7.1 km/h 6.9 mph /  11.1 km/h 84 % 0.00 in /  0 mm
00:15 65.0 °F /  18.3 °C 60.0 °F /  15.6 °C 29.85 in /  1010.7 hPa West 0.5 mph /  0.8 km/h 3.0 mph /  4.8 km/h 84 % 0.00 in /  0 mm
00:21 64.9 °F /  18.3 °C 59.9 °F /  15.5 °C 29.85 in /  1010.7 hPa WSW 1.0 mph /  1.6 km/h 6.0 mph /  9.7 km/h 84 % 0.00 in /  0 mm
00:26 64.9 °F /  18.3 °C 59.9 °F /  15.5 °C 29.85 in /  1010.7 hPa WSW 2.3 mph /  3.7 km/h 4.0 mph /  6.4 km/h 84 % 0.00 in /  0 mm
00:31 64.8 °F /  18.2 °C 59.9 °F /  15.5 °C 29.85 in /  1010.7 hPa WSW 2.0 mph /  3.2 km/h 4.0 mph /  6.4 km/h 84 % 0.00 in /  0 mm
00:35 64.7 °F /  18.2 °C 59.8 °F /  15.4 °C 29.85 in /  1010.7 hPa WSW 2.0 mph /  3.2 km/h 7.0 mph /  11.3 km/h 84 % 0.00 in /  0 mm
00:41 64.7 °F /  18.2 °C 59.8 °F /  15.4 °C 29.85 in /  1010.7 hPa West 1.0 mph /  1.6 km/h 4.0 mph /  6.4 km/h 84 % 0.00 in /  0 mm
00:46 64.6 °F /  18.1 °C 59.7 °F /  15.4 °C 29.85 in /  1010.7 hPa WSW 1.0 mph /  1.6 km/h 7.0 mph /  11.3 km/h 84 % 0.00 in /  0 mm
00:51 64.5 °F /  18.1 °C 59.6 °F /  15.3 °C 29.85 in /  1010.7 hPa WSW 3.0 mph /  4.8 km/h 6.0 mph /  9.7 km/h 84 % 0.00 in /  0 mm
00:56 64.4 °F /  18 °C 59.5 °F /  15.3 °C 29.86 in /  1011.1 hPa WSW 1.0 mph /  1.6 km/h 6.0 mph /  9.7 km/h 84 % 0.00 in /  0 mm
01:01 64.4 °F /  18 °C 59.5 °F /  15.3 °C 29.85 in /  1010.7 hPa WSW 3.3 mph /  5.3 km/h 4.6 mph /  7.4 km/h 84 % 0.00 in /  0 mm
01:06 64.3 °F /  17.9 °C 59.4 °F /  15.2 °C 29.86 in /  1011.1 hPa SW 2.0 mph /  3.2 km/h 12.0 mph /  19.3 km/h 84 % 0.00 in /  0 mm
01:11 64.2 °F /  17.9 °C 59.3 °F /  15.2 °C 29.86 in /  1011.1 hPa WSW 3.0 mph /  4.8 km/h 8.0 mph /  12.9 km/h 84 % 0.00 in /  0 mm
01:16 64.2 °F /  17.9 °C 59.3 °F /  15.2 °C 29.86 in /  1011.1 hPa WSW 3.0 mph /  4.8 km/h 12.0 mph /  19.3 km/h 84 % 0.00 in /  0 mm
01:20 64.2 °F /  17.9 °C 59.3 °F /  15.2 °C 29.86 in /  1011.1 hPa WSW 2.0 mph /  3.2 km/h 7.0 mph /  11.3 km/h 84 % 0.00 in /  0 mm
01:25 64.1 °F /  17.8 °C 59.2 °F /  15.1 °C 29.86 in /  1011.1 hPa SW 2.2 mph /  3.5 km/h 4.0 mph /  6.4 km/h 84 % 0.00 in /  0 mm
01:30 64.1 °F /  17.8 °C 59.2 °F /  15.1 °C 29.86 in /  1011.1 hPa WSW 3.2 mph /  5.1 km/h 5.0 mph /  8 km/h 84 % 0.00 in /  0 mm
01:35 64.1 °F /  17.8 °C 59.2 °F /  15.1 °C 29.86 in /  1011.1 hPa West 1.9 mph /  3.1 km/h 3.5 mph /  5.6 km/h 84 % 0.00 in /  0 mm
01:40 64.1 °F /  17.8 °C 59.2 °F /  15.1 °C 29.86 in /  1011.1 hPa WSW 3.6 mph /  5.8 km/h 6.0 mph /  9.7 km/h 84 % 0.00 in /  0 mm
01:46 64.0 °F /  17.8 °C 59.1 °F /  15.1 °C 29.86 in /  1011.1 hPa WSW 1.0 mph /  1.6 km/h 7.0 mph /  11.3 km/h 84 % 0.00 in /  0 mm
01:51 64.0 °F /  17.8 °C 59.1 °F /  15.1 °C 29.86 in /  1011.1 hPa WSW 2.0 mph /  3.2 km/h 7.0 mph /  11.3 km/h 84 % 0.00 in /  0 mm
01:56 63.9 °F /  17.7 °C 59.0 °F /  15 °C 29.86 in /  1011.1 hPa SW 1.4 mph /  2.3 km/h 3.5 mph /  5.6 km/h 84 % 0.00 in /  0 mm
02:01 63.9 °F /  17.7 °C 59.3 °F /  15.2 °C 29.85 in /  1010.7 hPa WSW 3.8 mph /  6.1 km/h 3.8 mph /  6.1 km/h 85 % 0.00 in /  0 mm
02:06 63.8 °F /  17.7 °C 59.2 °F /  15.1 °C 29.85 in /  1010.7 hPa SW 2.8 mph /  4.5 km/h 8.0 mph /  12.9 km/h 85 % 0.00 in /  0 mm
02:11 63.8 °F /  17.7 °C 59.2 °F /  15.1 °C 29.85 in /  1010.7 hPa West 3.5 mph /  5.6 km/h 7.0 mph /  11.3 km/h 85 % 0.00 in /  0 mm
02:16 63.7 °F /  17.6 °C 59.1 °F /  15.1 °C 29.86 in /  1011.1 hPa WSW 4.2 mph /  6.8 km/h 6.0 mph /  9.7 km/h 85 % 0.00 in /  0 mm
02:21 63.7 °F /  17.6 °C 59.1 °F /  15.1 °C 29.86 in /  1011.1 hPa West 3.5 mph /  5.6 km/h 8.1 mph /  13 km/h 85 % 0.00 in /  0 mm
02:26 63.6 °F /  17.6 °C 59.0 °F /  15 °C 29.86 in /  1011.1 hPa WSW 3.5 mph /  5.6 km/h 5.8 mph /  9.3 km/h 85 % 0.00 in /  0 mm
02:31 63.6 °F /  17.6 °C 59.0 °F /  15 °C 29.86 in /  1011.1 hPa SW 2.8 mph /  4.5 km/h 6.9 mph /  11.1 km/h 85 % 0.00 in /  0 mm
02:36 63.6 °F /  17.6 °C 59.0 °F /  15 °C 29.86 in /  1011.1 hPa SSW 3.2 mph /  5.1 km/h 6.9 mph /  11.1 km/h 85 % 0.00 in /  0 mm
02:41 63.5 °F /  17.5 °C 58.9 °F /  14.9 °C 29.85 in /  1010.7 hPa West 2.6 mph /  4.2 km/h 6.9 mph /  11.1 km/h 85 % 0.00 in /  0 mm
02:46 63.5 °F /  17.5 °C 58.9 °F /  14.9 °C 29.86 in /  1011.1 hPa WSW 2.3 mph /  3.7 km/h 6.0 mph /  9.7 km/h 85 % 0.00 in /  0 mm
02:51 63.5 °F /  17.5 °C 58.9 °F /  14.9 °C 29.86 in /  1011.1 hPa WSW 4.5 mph /  7.2 km/h 9.2 mph /  14.8 km/h 85 % 0.00 in /  0 mm
02:56 63.4 °F /  17.4 °C 58.8 °F /  14.9 °C 29.86 in /  1011.1 hPa SW 3.0 mph /  4.8 km/h 6.0 mph /  9.7 km/h 85 % 0.00 in /  0 mm
03:01 63.4 °F /  17.4 °C 58.8 °F /  14.9 °C 29.86 in /  1011.1 hPa WSW 4.1 mph /  6.6 km/h 6.9 mph /  11.1 km/h 85 % 0.00 in /  0 mm
03:06 63.4 °F /  17.4 °C 58.8 °F /  14.9 °C 29.86 in /  1011.1 hPa SW 2.5 mph /  4 km/h 5.8 mph /  9.3 km/h 85 % 0.00 in /  0 mm
03:11 63.4 °F /  17.4 °C 59.1 °F /  15.1 °C 29.86 in /  1011.1 hPa SW 3.4 mph /  5.5 km/h 5.8 mph /  9.3 km/h 86 % 0.00 in /  0 mm
03:16 63.3 °F /  17.4 °C 59.0 °F /  15 °C 29.86 in /  1011.1 hPa WSW 4.2 mph /  6.8 km/h 9.0 mph /  14.5 km/h 86 % 0.00 in /  0 mm
03:21 63.3 °F /  17.4 °C 59.0 °F /  15 °C 29.86 in /  1011.1 hPa WSW 3.8 mph /  6.1 km/h 8.1 mph /  13 km/h 86 % 0.00 in /  0 mm
03:26 63.2 °F /  17.3 °C 58.9 °F /  14.9 °C 29.86 in /  1011.1 hPa South 4.1 mph /  6.6 km/h 5.8 mph /  9.3 km/h 86 % 0.00 in /  0 mm
03:31 63.2 °F /  17.3 °C 58.6 °F /  14.8 °C 29.86 in /  1011.1 hPa WSW 1.1 mph /  1.8 km/h 3.5 mph /  5.6 km/h 85 % 0.00 in /  0 mm
03:36 63.1 °F /  17.3 °C 58.5 °F /  14.7 °C 29.86 in /  1011.1 hPa SW 5.1 mph /  8.2 km/h 9.0 mph /  14.5 km/h 85 % 0.00 in /  0 mm
03:42 63.1 °F /  17.3 °C 58.5 °F /  14.7 °C 29.86 in /  1011.1 hPa WSW 5.1 mph /  8.2 km/h 8.1 mph /  13 km/h 85 % 0.00 in /  0 mm
03:47 63.0 °F /  17.2 °C 58.4 °F /  14.7 °C 29.86 in /  1011.1 hPa SW 3.2 mph /  5.1 km/h 10.4 mph /  16.7 km/h 85 % 0.00 in /  0 mm
03:52 63.0 °F /  17.2 °C 58.7 °F /  14.8 °C 29.86 in /  1011.1 hPa WSW 2.4 mph /  3.9 km/h 3.5 mph /  5.6 km/h 86 % 0.00 in /  0 mm
03:57 63.0 °F /  17.2 °C 58.7 °F /  14.8 °C 29.86 in /  1011.1 hPa WSW 4.2 mph /  6.8 km/h 8.1 mph /  13 km/h 86 % 0.00 in /  0 mm
04:02 63.0 °F /  17.2 °C 58.7 °F /  14.8 °C 29.86 in /  1011.1 hPa West 1.7 mph /  2.7 km/h 10.4 mph /  16.7 km/h 86 % 0.00 in /  0 mm
04:07 62.9 °F /  17.2 °C 58.6 °F /  14.8 °C 29.86 in /  1011.1 hPa WSW 3.8 mph /  6.1 km/h 6.9 mph /  11.1 km/h 86 % 0.00 in /  0 mm
04:12 63.0 °F /  17.2 °C 59.1 °F /  15.1 °C 29.87 in /  1011.4 hPa SW 1.7 mph /  2.7 km/h 4.6 mph /  7.4 km/h 87 % 0.00 in /  0 mm
04:17 62.9 °F /  17.2 °C 59.0 °F /  15 °C 29.87 in /  1011.4 hPa WSW 4.8 mph /  7.7 km/h 8.1 mph /  13 km/h 87 % 0.00 in /  0 mm
04:22 62.9 °F /  17.2 °C 59.0 °F /  15 °C 29.87 in /  1011.4 hPa West 1.9 mph /  3.1 km/h 8.1 mph /  13 km/h 87 % 0.00 in /  0 mm
04:27 63.0 °F /  17.2 °C 59.4 °F /  15.2 °C 29.87 in /  1011.4 hPa SW 1.9 mph /  3.1 km/h 2.3 mph /  3.7 km/h 88 % 0.00 in /  0 mm
04:32 63.0 °F /  17.2 °C 59.4 °F /  15.2 °C 29.87 in /  1011.4 hPa WNW 2.2 mph /  3.5 km/h 6.9 mph /  11.1 km/h 88 % 0.00 in /  0 mm
04:37 63.0 °F /  17.2 °C 59.4 °F /  15.2 °C 29.87 in /  1011.4 hPa WNW 4.1 mph /  6.6 km/h 10.4 mph /  16.7 km/h 88 % 0.00 in /  0 mm
04:42 62.9 °F /  17.2 °C 59.3 °F /  15.2 °C 29.87 in /  1011.4 hPa WSW 0.8 mph /  1.3 km/h 6.9 mph /  11.1 km/h 88 % 0.00 in /  0 mm
04:43 62.9 °F /  17.2 °C 59.3 °F /  15.2 °C 29.87 in /  1011.4 hPa WSW 2.1 mph /  3.4 km/h 3.5 mph /  5.6 km/h 88 % 0.00 in /  0 mm
04:48 62.9 °F /  17.2 °C 59.3 °F /  15.2 °C 29.87 in /  1011.4 hPa SW 2.4 mph /  3.9 km/h 4.0 mph /  6.4 km/h 88 % 0.00 in /  0 mm
04:53 62.9 °F /  17.2 °C 59.0 °F /  15 °C 29.88 in /  1011.7 hPa WSW 2.6 mph /  4.2 km/h 4.6 mph /  7.4 km/h 87 % 0.00 in /  0 mm
04:58 62.8 °F /  17.1 °C 58.9 °F /  14.9 °C 29.88 in /  1011.7 hPa WSW 2.2 mph /  3.5 km/h 5.8 mph /  9.3 km/h 87 % 0.00 in /  0 mm
05:03 62.7 °F /  17.1 °C 58.8 °F /  14.9 °C 29.88 in /  1011.7 hPa SW 1.6 mph /  2.6 km/h 3.5 mph /  5.6 km/h 87 % 0.00 in /  0 mm
05:08 62.6 °F /  17 °C 58.7 °F /  14.8 °C 29.88 in /  1011.7 hPa SSE 1.6 mph /  2.6 km/h 3.5 mph /  5.6 km/h 87 % 0.00 in /  0 mm
05:13 62.5 °F /  16.9 °C 58.6 °F /  14.8 °C 29.88 in /  1011.7 hPa WSW 2.2 mph /  3.5 km/h 6.0 mph /  9.7 km/h 87 % 0.00 in /  0 mm
05:16 62.5 °F /  16.9 °C 58.6 °F /  14.8 °C 29.88 in /  1011.7 hPa SW 3.2 mph /  5.1 km/h 4.6 mph /  7.4 km/h 87 % 0.00 in /  0 mm
05:21 62.3 °F /  16.8 °C 58.4 °F /  14.7 °C 29.88 in /  1011.7 hPa WSW 2.6 mph /  4.2 km/h 5.0 mph /  8 km/h 87 % 0.00 in /  0 mm
05:26 62.2 °F /  16.8 °C 58.3 °F /  14.6 °C 29.88 in /  1011.7 hPa WSW 0.9 mph /  1.4 km/h 3.5 mph /  5.6 km/h 87 % 0.00 in /  0 mm
05:31 62.2 °F /  16.8 °C 58.3 °F /  14.6 °C 29.88 in /  1011.7 hPa WNW 2.2 mph /  3.5 km/h 4.6 mph /  7.4 km/h 87 % 0.00 in /  0 mm
05:36 62.1 °F /  16.7 °C 58.2 °F /  14.6 °C 29.89 in /  1012.1 hPa WSW 1.4 mph /  2.3 km/h 3.5 mph /  5.6 km/h 87 % 0.00 in /  0 mm
05:41 62.0 °F /  16.7 °C 58.1 °F /  14.5 °C 29.89 in /  1012.1 hPa SW 2.4 mph /  3.9 km/h 6.9 mph /  11.1 km/h 87 % 0.00 in /  0 mm
05:46 61.9 °F /  16.6 °C 58.0 °F /  14.4 °C 29.89 in /  1012.1 hPa SSW 2.2 mph /  3.5 km/h 5.8 mph /  9.3 km/h 87 % 0.00 in /  0 mm
05:51 61.8 °F /  16.6 °C 57.9 °F /  14.4 °C 29.89 in /  1012.1 hPa West 0.3 mph /  0.5 km/h 1.2 mph /  1.9 km/h 87 % 0.00 in /  0 mm
05:56 61.8 °F /  16.6 °C 58.2 °F /  14.6 °C 29.89 in /  1012.1 hPa West 1.5 mph /  2.4 km/h 5.0 mph /  8 km/h 88 % 0.00 in /  0 mm
06:01 61.7 °F /  16.5 °C 58.1 °F /  14.5 °C 29.89 in /  1012.1 hPa WSW 1.9 mph /  3.1 km/h 5.0 mph /  8 km/h 88 % 0.00 in /  0 mm
06:06 61.6 °F /  16.4 °C 58.0 °F /  14.4 °C 29.90 in /  1012.4 hPa WSW 0.7 mph /  1.1 km/h 2.3 mph /  3.7 km/h 88 % 0.00 in /  0 mm
06:11 61.6 °F /  16.4 °C 58.0 °F /  14.4 °C 29.89 in /  1012.1 hPa WSW 0.5 mph /  0.8 km/h 2.3 mph /  3.7 km/h 88 % 0.00 in /  0 mm
06:16 61.6 °F /  16.4 °C 58.0 °F /  14.4 °C 29.90 in /  1012.4 hPa WSW 4.1 mph /  6.6 km/h 5.8 mph /  9.3 km/h 88 % 0.00 in /  0 mm
06:21 61.6 °F /  16.4 °C 58.3 °F /  14.6 °C 29.90 in /  1012.4 hPa WSW 0.9 mph /  1.4 km/h 4.6 mph /  7.4 km/h 89 % 0.00 in /  0 mm
06:26 61.6 °F /  16.4 °C 58.3 °F /  14.6 °C 29.90 in /  1012.4 hPa WSW 2.4 mph /  3.9 km/h 4.6 mph /  7.4 km/h 89 % 0.00 in /  0 mm
06:31 61.6 °F /  16.4 °C 58.3 °F /  14.6 °C 29.90 in /  1012.4 hPa WSW 1.5 mph /  2.4 km/h 5.8 mph /  9.3 km/h 89 % 0.00 in /  0 mm
06:36 61.6 °F /  16.4 °C 58.3 °F /  14.6 °C 29.90 in /  1012.4 hPa West 0.4 mph /  0.6 km/h 1.2 mph /  1.9 km/h 89 % 0.00 in /  0 mm
06:41 61.6 °F /  16.4 °C 58.3 °F /  14.6 °C 29.90 in /  1012.4 hPa WSW 0.7 mph /  1.1 km/h 1.2 mph /  1.9 km/h 89 % 0.00 in /  0 mm
06:46 61.6 °F /  16.4 °C 58.3 °F /  14.6 °C 29.90 in /  1012.4 hPa WSW 0.5 mph /  0.8 km/h 3.0 mph /  4.8 km/h 89 % 0.00 in /  0 mm
06:51 61.6 °F /  16.4 °C 58.3 °F /  14.6 °C 29.91 in /  1012.8 hPa Calm     89 % 0.00 in /  0 mm
06:56 61.6 °F /  16.4 °C 58.3 °F /  14.6 °C 29.91 in /  1012.8 hPa Calm   1.2 mph /  1.9 km/h 89 % 0.00 in /  0 mm
07:01 61.5 °F /  16.4 °C 58.2 °F /  14.6 °C 29.91 in /  1012.8 hPa Calm     89 % 0.00 in /  0 mm
07:06 61.5 °F /  16.4 °C 58.2 °F /  14.6 °C 29.92 in /  1013.1 hPa Calm     89 % 0.00 in /  0 mm
07:12 61.4 °F /  16.3 °C 58.1 °F /  14.5 °C 29.92 in /  1013.1 hPa Calm     89 % 0.00 in /  0 mm
07:17 61.4 °F /  16.3 °C 58.1 °F /  14.5 °C 29.91 in /  1012.8 hPa Calm     89 % 0.00 in /  0 mm
07:22 61.4 °F /  16.3 °C 58.1 °F /  14.5 °C 29.91 in /  1012.8 hPa Calm     89 % 0.00 in /  0 mm
07:27 61.3 °F /  16.3 °C 58.0 °F /  14.4 °C 29.92 in /  1013.1 hPa Calm   1.2 mph /  1.9 km/h 89 % 0.00 in /  0 mm
07:32 61.3 °F /  16.3 °C 58.3 °F /  14.6 °C 29.92 in /  1013.1 hPa Calm   1.2 mph /  1.9 km/h 90 % 0.00 in /  0 mm
07:37 61.3 °F /  16.3 °C 58.3 °F /  14.6 °C 29.92 in /  1013.1 hPa SW 0.3 mph /  0.5 km/h 2.0 mph /  3.2 km/h 90 % 0.00 in /  0 mm
07:42 61.3 °F /  16.3 °C 58.3 °F /  14.6 °C 29.92 in /  1013.1 hPa SW 1.6 mph /  2.6 km/h 3.5 mph /  5.6 km/h 90 % 0.00 in /  0 mm
07:47 61.3 °F /  16.3 °C 58.3 °F /  14.6 °C 29.91 in /  1012.8 hPa SW 1.3 mph /  2.1 km/h 3.5 mph /  5.6 km/h 90 % 0.00 in /  0 mm
07:52 61.4 °F /  16.3 °C 58.7 °F /  14.8 °C 29.92 in /  1013.1 hPa West 2.9 mph /  4.7 km/h 4.6 mph /  7.4 km/h 91 % 0.00 in /  0 mm
07:57 61.4 °F /  16.3 °C 58.7 °F /  14.8 °C 29.92 in /  1013.1 hPa SW 1.3 mph /  2.1 km/h 3.0 mph /  4.8 km/h 91 % 0.00 in /  0 mm
08:02 61.5 °F /  16.4 °C 58.8 °F /  14.9 °C 29.92 in /  1013.1 hPa WSW 0.8 mph /  1.3 km/h 2.3 mph /  3.7 km/h 91 % 0.00 in /  0 mm
08:07 61.7 °F /  16.5 °C 59.0 °F /  15 °C 29.91 in /  1012.8 hPa SW 1.3 mph /  2.1 km/h 3.5 mph /  5.6 km/h 91 % 0.00 in /  0 mm
08:12 61.8 °F /  16.6 °C 59.1 °F /  15.1 °C 29.92 in /  1013.1 hPa SW 2.0 mph /  3.2 km/h 9.0 mph /  14.5 km/h 91 % 0.00 in /  0 mm
08:17 62.1 °F /  16.7 °C 59.4 °F /  15.2 °C 29.92 in /  1013.1 hPa WSW 1.1 mph /  1.8 km/h 2.3 mph /  3.7 km/h 91 % 0.00 in /  0 mm
08:22 62.3 °F /  16.8 °C 59.3 °F /  15.2 °C 29.92 in /  1013.1 hPa WSW 3.5 mph /  5.6 km/h 6.0 mph /  9.7 km/h 90 % 0.00 in /  0 mm
08:28 62.5 °F /  16.9 °C 59.5 °F /  15.3 °C 29.91 in /  1012.8 hPa West 1.9 mph /  3.1 km/h 3.5 mph /  5.6 km/h 90 % 0.00 in /  0 mm
08:32 62.8 °F /  17.1 °C 59.8 °F /  15.4 °C 29.91 in /  1012.8 hPa WNW 2.1 mph /  3.4 km/h 4.6 mph /  7.4 km/h 90 % 0.00 in /  0 mm
08:38 63.0 °F /  17.2 °C 59.7 °F /  15.4 °C 29.91 in /  1012.8 hPa WSW 3.6 mph /  5.8 km/h 4.6 mph /  7.4 km/h 89 % 0.00 in /  0 mm
08:43 63.3 °F /  17.4 °C 60.0 °F /  15.6 °C 29.91 in /  1012.8 hPa WSW 2.7 mph /  4.3 km/h 6.0 mph /  9.7 km/h 89 % 0.00 in /  0 mm
08:48 63.6 °F /  17.6 °C 60.0 °F /  15.6 °C 29.92 in /  1013.1 hPa WSW 3.9 mph /  6.3 km/h 5.8 mph /  9.3 km/h 88 % 0.00 in /  0 mm
08:53 64.0 °F /  17.8 °C 60.4 °F /  15.8 °C 29.91 in /  1012.8 hPa West 2.6 mph /  4.2 km/h 4.6 mph /  7.4 km/h 88 % 0.00 in /  0 mm
08:58 64.3 °F /  17.9 °C 60.3 °F /  15.7 °C 29.91 in /  1012.8 hPa WSW 0.7 mph /  1.1 km/h 3.5 mph /  5.6 km/h 87 % 0.00 in /  0 mm
09:03 64.5 °F /  18.1 °C 60.5 °F /  15.8 °C 29.92 in /  1013.1 hPa SSW 2.1 mph /  3.4 km/h 5.8 mph /  9.3 km/h 87 % 0.00 in /  0 mm
09:08 64.8 °F /  18.2 °C 60.5 °F /  15.8 °C 29.91 in /  1012.8 hPa West 4.3 mph /  6.9 km/h 6.9 mph /  11.1 km/h 86 % 0.00 in /  0 mm
09:13 65.0 °F /  18.3 °C 60.4 °F /  15.8 °C 29.91 in /  1012.8 hPa WSW 4.3 mph /  6.9 km/h 6.9 mph /  11.1 km/h 85 % 0.00 in /  0 mm
09:18 65.3 °F /  18.5 °C 60.7 °F /  15.9 °C 29.92 in /  1013.1 hPa SW 2.3 mph /  3.7 km/h 3.5 mph /  5.6 km/h 85 % 0.00 in /  0 mm
09:23 65.6 °F /  18.7 °C 61.0 °F /  16.1 °C 29.91 in /  1012.8 hPa West 0.7 mph /  1.1 km/h 2.3 mph /  3.7 km/h 85 % 0.00 in /  0 mm
09:28 65.9 °F /  18.8 °C 60.9 °F /  16.1 °C 29.91 in /  1012.8 hPa WSW 2.5 mph /  4 km/h 4.6 mph /  7.4 km/h 84 % 0.00 in /  0 mm
09:33 66.2 °F /  19 °C 60.9 °F /  16.1 °C 29.91 in /  1012.8 hPa SSW 2.7 mph /  4.3 km/h 6.9 mph /  11.1 km/h 83 % 0.00 in /  0 mm
09:38 66.6 °F /  19.2 °C 61.3 °F /  16.3 °C 29.92 in /  1013.1 hPa WSW 3.0 mph /  4.8 km/h 3.5 mph /  5.6 km/h 83 % 0.00 in /  0 mm
09:44 67.2 °F /  19.6 °C 61.5 °F /  16.4 °C 29.92 in /  1013.1 hPa SSW 3.6 mph /  5.8 km/h 4.6 mph /  7.4 km/h 82 % 0.00 in /  0 mm
09:49 67.8 °F /  19.9 °C 61.8 °F /  16.6 °C 29.91 in /  1012.8 hPa WSW 2.1 mph /  3.4 km/h 4.6 mph /  7.4 km/h 81 % 0.00 in /  0 mm
09:54 68.5 °F /  20.3 °C 61.7 °F /  16.5 °C 29.91 in /  1012.8 hPa WSW 3.6 mph /  5.8 km/h 6.9 mph /  11.1 km/h 79 % 0.00 in /  0 mm
09:59 69.3 °F /  20.7 °C 61.8 °F /  16.6 °C 29.92 in /  1013.1 hPa SW 1.5 mph /  2.4 km/h 5.8 mph /  9.3 km/h 77 % 0.00 in /  0 mm
10:04 69.9 °F /  21.1 °C 62.4 °F /  16.9 °C 29.92 in /  1013.1 hPa SSW 2.8 mph /  4.5 km/h 6.0 mph /  9.7 km/h 77 % 0.00 in /  0 mm
10:09 70.4 °F /  21.3 °C 62.1 °F /  16.7 °C 29.92 in /  1013.1 hPa West 3.1 mph /  5 km/h 6.9 mph /  11.1 km/h 75 % 0.00 in /  0 mm
10:14 70.8 °F /  21.6 °C 62.5 °F /  16.9 °C 29.91 in /  1012.8 hPa WNW 1.8 mph /  2.9 km/h 3.5 mph /  5.6 km/h 75 % 0.00 in /  0 mm
10:19 71.0 °F /  21.7 °C 61.9 °F /  16.6 °C 29.91 in /  1012.8 hPa West 3.3 mph /  5.3 km/h 4.6 mph /  7.4 km/h 73 % 0.00 in /  0 mm
10:24 71.2 °F /  21.8 °C 61.3 °F /  16.3 °C 29.91 in /  1012.8 hPa WSW 2.8 mph /  4.5 km/h 6.9 mph /  11.1 km/h 71 % 0.00 in /  0 mm
10:29 71.3 °F /  21.8 °C 61.8 °F /  16.6 °C 29.91 in /  1012.8 hPa WNW 0.5 mph /  0.8 km/h 2.3 mph /  3.7 km/h 72 % 0.00 in /  0 mm
10:34 71.4 °F /  21.9 °C 62.3 °F /  16.8 °C 29.92 in /  1013.1 hPa WSW 1.7 mph /  2.7 km/h 4.6 mph /  7.4 km/h 73 % 0.00 in /  0 mm
10:39 71.5 °F /  21.9 °C 62.4 °F /  16.9 °C 29.92 in /  1013.1 hPa West 3.7 mph /  6 km/h 5.8 mph /  9.3 km/h 73 % 0.00 in /  0 mm
10:44 71.5 °F /  21.9 °C 61.6 °F /  16.4 °C 29.92 in /  1013.1 hPa WNW 3.9 mph /  6.3 km/h 6.9 mph /  11.1 km/h 71 % 0.00 in /  0 mm
10:49 71.7 °F /  22.1 °C 61.8 °F /  16.6 °C 29.92 in /  1013.1 hPa WSW 3.0 mph /  4.8 km/h 11.5 mph /  18.5 km/h 71 % 0.00 in /  0 mm
10:54 72.1 °F /  22.3 °C 62.2 °F /  16.8 °C 29.92 in /  1013.1 hPa SW 4.0 mph /  6.4 km/h 8.1 mph /  13 km/h 71 % 0.00 in /  0 mm
10:59 72.6 °F /  22.6 °C 62.7 °F /  17.1 °C 29.92 in /  1013.1 hPa West 2.6 mph /  4.2 km/h 6.0 mph /  9.7 km/h 71 % 0.00 in /  0 mm
11:04 73.1 °F /  22.8 °C 63.1 °F /  17.3 °C 29.92 in /  1013.1 hPa West 2.8 mph /  4.5 km/h 6.9 mph /  11.1 km/h 71 % 0.00 in /  0 mm
11:09 73.9 °F /  23.3 °C 64.3 °F /  17.9 °C 29.92 in /  1013.1 hPa WSW 2.3 mph /  3.7 km/h 5.0 mph /  8 km/h 72 % 0.00 in /  0 mm
11:14 74.7 °F /  23.7 °C 63.4 °F /  17.4 °C 29.92 in /  1013.1 hPa WSW 2.4 mph /  3.9 km/h 3.5 mph /  5.6 km/h 68 % 0.00 in /  0 mm
11:19 75.5 °F /  24.2 °C 64.2 °F /  17.9 °C 29.91 in /  1012.8 hPa WSW 3.5 mph /  5.6 km/h 4.6 mph /  7.4 km/h 68 % 0.00 in /  0 mm
11:24 76.2 °F /  24.6 °C 62.7 °F /  17.1 °C 29.91 in /  1012.8 hPa WSW 3.3 mph /  5.3 km/h 6.9 mph /  11.1 km/h 63 % 0.00 in /  0 mm
11:29 76.9 °F /  24.9 °C 63.8 °F /  17.7 °C 29.91 in /  1012.8 hPa SW 3.8 mph /  6.1 km/h 8.0 mph /  12.9 km/h 64 % 0.00 in /  0 mm
11:34 77.6 °F /  25.3 °C 64.9 °F /  18.3 °C 29.91 in /  1012.8 hPa WNW 0.9 mph /  1.4 km/h 3.5 mph /  5.6 km/h 65 % 0.00 in /  0 mm
11:39 78.2 °F /  25.7 °C 62.7 °F /  17.1 °C 29.91 in /  1012.8 hPa WSW 4.7 mph /  7.6 km/h 10.4 mph /  16.7 km/h 59 % 0.00 in /  0 mm
11:44 78.9 °F /  26.1 °C 63.4 °F /  17.4 °C 29.91 in /  1012.8 hPa SW 2.5 mph /  4 km/h 6.9 mph /  11.1 km/h 59 % 0.00 in /  0 mm
11:49 79.4 °F /  26.3 °C 63.3 °F /  17.4 °C 29.91 in /  1012.8 hPa WNW 3.4 mph /  5.5 km/h 5.8 mph /  9.3 km/h 58 % 0.00 in /  0 mm
11:54 79.9 °F /  26.6 °C 63.8 °F /  17.7 °C 29.91 in /  1012.8 hPa West 3.7 mph /  6 km/h 5.8 mph /  9.3 km/h 58 % 0.00 in /  0 mm
11:59 80.4 °F /  26.9 °C 64.8 °F /  18.2 °C 29.90 in /  1012.4 hPa West 0.8 mph /  1.3 km/h 4.6 mph /  7.4 km/h 59 % 0.00 in /  0 mm
12:04 81.0 °F /  27.2 °C 63.8 °F /  17.7 °C 29.91 in /  1012.8 hPa WNW 4.3 mph /  6.9 km/h 4.3 mph /  6.9 km/h 56 % 0.00 in /  0 mm
12:09 81.4 °F /  27.4 °C 63.2 °F /  17.3 °C 29.91 in /  1012.8 hPa NW 5.4 mph /  8.7 km/h 8.1 mph /  13 km/h 54 % 0.00 in /  0 mm
12:14 81.6 °F /  27.6 °C 62.8 °F /  17.1 °C 29.90 in /  1012.4 hPa SW 1.5 mph /  2.4 km/h 4.6 mph /  7.4 km/h 53 % 0.00 in /  0 mm
12:19 81.9 °F /  27.7 °C 63.1 °F /  17.3 °C 29.91 in /  1012.8 hPa WSW 5.4 mph /  8.7 km/h 10.4 mph /  16.7 km/h 53 % 0.00 in /  0 mm
12:24 82.3 °F /  27.9 °C 62.9 °F /  17.2 °C 29.90 in /  1012.4 hPa WNW 2.5 mph /  4 km/h 9.2 mph /  14.8 km/h 52 % 0.00 in /  0 mm
12:25 82.4 °F /  28 °C 62.5 °F /  16.9 °C 29.90 in /  1012.4 hPa WSW 1.7 mph /  2.7 km/h 5.0 mph /  8 km/h 51 % 0.00 in /  0 mm
12:30 82.6 °F /  28.1 °C 61.5 °F /  16.4 °C 29.90 in /  1012.4 hPa NW 4.0 mph /  6.4 km/h 6.9 mph /  11.1 km/h 49 % 0.00 in /  0 mm
12:35 82.8 °F /  28.2 °C 62.3 °F /  16.8 °C 29.90 in /  1012.4 hPa WSW 3.6 mph /  5.8 km/h 6.9 mph /  11.1 km/h 50 % 0.00 in /  0 mm
12:40 83.2 °F /  28.4 °C 64.3 °F /  17.9 °C 29.90 in /  1012.4 hPa WSW 0.6 mph /  1 km/h 2.3 mph /  3.7 km/h 53 % 0.00 in /  0 mm
12:45 83.3 °F /  28.5 °C 62.7 °F /  17.1 °C 29.90 in /  1012.4 hPa West 4.6 mph /  7.4 km/h 8.1 mph /  13 km/h 50 % 0.00 in /  0 mm
12:50 83.6 °F /  28.7 °C 62.4 °F /  16.9 °C 29.90 in /  1012.4 hPa West 2.8 mph /  4.5 km/h 5.8 mph /  9.3 km/h 49 % 0.00 in /  0 mm
12:55 84.0 °F /  28.9 °C 65.0 °F /  18.3 °C 29.89 in /  1012.1 hPa West 2.8 mph /  4.5 km/h 3.5 mph /  5.6 km/h 53 % 0.00 in /  0 mm
13:00 84.0 °F /  28.9 °C 62.2 °F /  16.8 °C 29.89 in /  1012.1 hPa WSW 4.5 mph /  7.2 km/h 6.9 mph /  11.1 km/h 48 % 0.00 in /  0 mm
13:05 84.2 °F /  29 °C 63.0 °F /  17.2 °C 29.89 in /  1012.1 hPa South 3.4 mph /  5.5 km/h 5.8 mph /  9.3 km/h 49 % 0.00 in /  0 mm
13:10 84.4 °F /  29.1 °C 63.2 °F /  17.3 °C 29.89 in /  1012.1 hPa NW 0.3 mph /  0.5 km/h 2.3 mph /  3.7 km/h 49 % 0.00 in /  0 mm
13:15 84.5 °F /  29.2 °C 63.2 °F /  17.3 °C 29.89 in /  1012.1 hPa SE 3.1 mph /  5 km/h 5.8 mph /  9.3 km/h 49 % 0.00 in /  0 mm
13:20 84.7 °F /  29.3 °C 64.6 °F /  18.1 °C 29.89 in /  1012.1 hPa SSW 2.3 mph /  3.7 km/h 5.8 mph /  9.3 km/h 51 % 0.00 in /  0 mm
13:25 84.8 °F /  29.3 °C 63.5 °F /  17.5 °C 29.88 in /  1011.7 hPa WSW 2.4 mph /  3.9 km/h 3.5 mph /  5.6 km/h 49 % 0.00 in /  0 mm
13:30 84.9 °F /  29.4 °C 63.6 °F /  17.6 °C 29.89 in /  1012.1 hPa West 6.7 mph /  10.8 km/h 11.5 mph /  18.5 km/h 49 % 0.00 in /  0 mm
13:35 84.9 °F /  29.4 °C 62.4 °F /  16.9 °C 29.88 in /  1011.7 hPa SW 2.5 mph /  4 km/h 5.0 mph /  8 km/h 47 % 0.00 in /  0 mm
13:40 84.9 °F /  29.4 °C 63.0 °F /  17.2 °C 29.88 in /  1011.7 hPa West 4.1 mph /  6.6 km/h 10.0 mph /  16.1 km/h 48 % 0.00 in /  0 mm
13:45 84.8 °F /  29.3 °C 62.9 °F /  17.2 °C 29.88 in /  1011.7 hPa SSW 3.8 mph /  6.1 km/h 9.2 mph /  14.8 km/h 48 % 0.00 in /  0 mm
13:50 84.8 °F /  29.3 °C 62.3 °F /  16.8 °C 29.88 in /  1011.7 hPa West 4.1 mph /  6.6 km/h 8.1 mph /  13 km/h 47 % 0.00 in /  0 mm
13:55 84.6 °F /  29.2 °C 63.3 °F /  17.4 °C 29.88 in /  1011.7 hPa SW 4.5 mph /  7.2 km/h 5.8 mph /  9.3 km/h 49 % 0.00 in /  0 mm
14:00 84.6 °F /  29.2 °C 63.9 °F /  17.7 °C 29.88 in /  1011.7 hPa SSW 0.1 mph /  0.2 km/h 1.2 mph /  1.9 km/h 50 % 0.00 in /  0 mm
14:06 84.6 °F /  29.2 °C 62.7 °F /  17.1 °C 29.87 in /  1011.4 hPa West 2.9 mph /  4.7 km/h 6.9 mph /  11.1 km/h 48 % 0.00 in /  0 mm
14:11 84.6 °F /  29.2 °C 62.7 °F /  17.1 °C 29.88 in /  1011.7 hPa SW 1.7 mph /  2.7 km/h 5.0 mph /  8 km/h 48 % 0.00 in /  0 mm
14:16 84.5 °F /  29.2 °C 62.7 °F /  17.1 °C 29.88 in /  1011.7 hPa SSW 6.7 mph /  10.8 km/h 7.0 mph /  11.3 km/h 48 % 0.00 in /  0 mm
14:21 84.3 °F /  29.1 °C 63.1 °F /  17.3 °C 29.87 in /  1011.4 hPa SW 1.0 mph /  1.6 km/h 6.9 mph /  11.1 km/h 49 % 0.00 in /  0 mm
14:26 84.3 °F /  29.1 °C 63.1 °F /  17.3 °C 29.87 in /  1011.4 hPa SW 3.0 mph /  4.8 km/h 7.0 mph /  11.3 km/h 49 % 0.00 in /  0 mm
14:31 84.2 °F /  29 °C 63.6 °F /  17.6 °C 29.87 in /  1011.4 hPa SW 3.0 mph /  4.8 km/h 8.0 mph /  12.9 km/h 50 % 0.00 in /  0 mm
14:36 84.2 °F /  29 °C 62.3 °F /  16.8 °C 29.87 in /  1011.4 hPa Calm   4.0 mph /  6.4 km/h 48 % 0.00 in /  0 mm
14:41 83.9 °F /  28.8 °C 62.7 °F /  17.1 °C 29.86 in /  1011.1 hPa SSW 3.0 mph /  4.8 km/h 9.0 mph /  14.5 km/h 49 % 0.00 in /  0 mm
14:46 84.0 °F /  28.9 °C 63.9 °F /  17.7 °C 29.86 in /  1011.1 hPa SW 2.0 mph /  3.2 km/h 6.0 mph /  9.7 km/h 51 % 0.00 in /  0 mm
14:51 84.1 °F /  28.9 °C 62.9 °F /  17.2 °C 29.86 in /  1011.1 hPa WSW 2.0 mph /  3.2 km/h 8.0 mph /  12.9 km/h 49 % 0.00 in /  0 mm
14:56 84.2 °F /  29 °C 63.5 °F /  17.5 °C 29.86 in /  1011.1 hPa WSW 2.0 mph /  3.2 km/h 6.0 mph /  9.7 km/h 50 % 0.00 in /  0 mm
15:01 84.3 °F /  29.1 °C 62.5 °F /  16.9 °C 29.86 in /  1011.1 hPa SW 1.8 mph /  2.9 km/h 9.2 mph /  14.8 km/h 48 % 0.00 in /  0 mm
15:06 84.3 °F /  29.1 °C 62.5 °F /  16.9 °C 29.86 in /  1011.1 hPa SW 3.7 mph /  6 km/h 10.4 mph /  16.7 km/h 48 % 0.00 in /  0 mm
15:11 84.3 °F /  29.1 °C 64.2 °F /  17.9 °C 29.85 in /  1010.7 hPa SSW 0.6 mph /  1 km/h 3.5 mph /  5.6 km/h 51 % 0.00 in /  0 mm
15:14 84.2 °F /  29 °C 63.5 °F /  17.5 °C 29.85 in /  1010.7 hPa SSW 1.9 mph /  3.1 km/h 5.8 mph /  9.3 km/h 50 % 0.00 in /  0 mm
15:19 83.8 °F /  28.8 °C 62.0 °F /  16.7 °C 29.85 in /  1010.7 hPa South 3.7 mph /  6 km/h 8.1 mph /  13 km/h 48 % 0.00 in /  0 mm
15:24 83.3 °F /  28.5 °C 63.3 °F /  17.4 °C 29.85 in /  1010.7 hPa SSE 1.4 mph /  2.3 km/h 4.6 mph /  7.4 km/h 51 % 0.00 in /  0 mm
15:29 83.0 °F /  28.3 °C 63.0 °F /  17.2 °C 29.85 in /  1010.7 hPa SSW 2.4 mph /  3.9 km/h 5.8 mph /  9.3 km/h 51 % 0.00 in /  0 mm
15:33 83.0 °F /  28.3 °C 63.6 °F /  17.6 °C 29.85 in /  1010.7 hPa SSE 3.2 mph /  5.1 km/h 9.2 mph /  14.8 km/h 52 % 0.00 in /  0 mm
15:38 82.9 °F /  28.3 °C 63.5 °F /  17.5 °C 29.85 in /  1010.7 hPa SW 1.0 mph /  1.6 km/h 3.5 mph /  5.6 km/h 52 % 0.00 in /  0 mm
15:43 82.6 °F /  28.1 °C 63.2 °F /  17.3 °C 29.85 in /  1010.7 hPa SE 1.6 mph /  2.6 km/h 3.5 mph /  5.6 km/h 52 % 0.00 in /  0 mm
15:48 82.4 °F /  28 °C 63.0 °F /  17.2 °C 29.84 in /  1010.4 hPa SSW 5.6 mph /  9 km/h 6.9 mph /  11.1 km/h 52 % 0.00 in /  0 mm
15:53 82.4 °F /  28 °C 63.0 °F /  17.2 °C 29.84 in /  1010.4 hPa SSW 0.6 mph /  1 km/h 4.0 mph /  6.4 km/h 52 % 0.00 in /  0 mm
15:58 82.3 °F /  27.9 °C 62.4 °F /  16.9 °C 29.84 in /  1010.4 hPa South 4.4 mph /  7.1 km/h 6.0 mph /  9.7 km/h 51 % 0.00 in /  0 mm
16:03 82.1 °F /  27.8 °C 62.7 °F /  17.1 °C 29.84 in /  1010.4 hPa SW 6.2 mph /  10 km/h 10.4 mph /  16.7 km/h 52 % 0.00 in /  0 mm
16:08 82.0 °F /  27.8 °C 62.6 °F /  17 °C 29.84 in /  1010.4 hPa SSW 1.3 mph /  2.1 km/h 5.8 mph /  9.3 km/h 52 % 0.00 in /  0 mm
16:13 81.9 °F /  27.7 °C 63.1 °F /  17.3 °C 29.84 in /  1010.4 hPa WSW 1.7 mph /  2.7 km/h 5.8 mph /  9.3 km/h 53 % 0.00 in /  0 mm
16:18 81.8 °F /  27.7 °C 63.0 °F /  17.2 °C 29.84 in /  1010.4 hPa South 2.0 mph /  3.2 km/h 2.3 mph /  3.7 km/h 53 % 0.00 in /  0 mm
16:23 81.4 °F /  27.4 °C 63.2 °F /  17.3 °C 29.84 in /  1010.4 hPa SW 1.4 mph /  2.3 km/h 4.0 mph /  6.4 km/h 54 % 0.00 in /  0 mm
16:28 81.3 °F /  27.4 °C 62.5 °F /  16.9 °C 29.83 in /  1010 hPa SE 2.0 mph /  3.2 km/h 4.6 mph /  7.4 km/h 53 % 0.00 in /  0 mm
16:33 81.0 °F /  27.2 °C 62.3 °F /  16.8 °C 29.84 in /  1010.4 hPa SW 3.0 mph /  4.8 km/h 8.1 mph /  13 km/h 53 % 0.00 in /  0 mm
16:38 80.7 °F /  27.1 °C 63.5 °F /  17.5 °C 29.83 in /  1010 hPa SE 2.5 mph /  4 km/h 5.8 mph /  9.3 km/h 56 % 0.00 in /  0 mm
16:44 80.1 °F /  26.7 °C 62.0 °F /  16.7 °C 29.83 in /  1010 hPa South 3.8 mph /  6.1 km/h 6.0 mph /  9.7 km/h 54 % 0.00 in /  0 mm
16:49 79.7 °F /  26.5 °C 61.6 °F /  16.4 °C 29.83 in /  1010 hPa SSE 2.6 mph /  4.2 km/h 6.9 mph /  11.1 km/h 54 % 0.00 in /  0 mm
16:54 79.4 °F /  26.3 °C 62.3 °F /  16.8 °C 29.83 in /  1010 hPa SSW 1.3 mph /  2.1 km/h 6.9 mph /  11.1 km/h 56 % 0.00 in /  0 mm
16:59 79.3 °F /  26.3 °C 61.7 °F /  16.5 °C 29.83 in /  1010 hPa SW 0.4 mph /  0.6 km/h 2.3 mph /  3.7 km/h 55 % 0.00 in /  0 mm
17:04 79.2 °F /  26.2 °C 62.1 °F /  16.7 °C 29.83 in /  1010 hPa South 1.7 mph /  2.7 km/h 9.2 mph /  14.8 km/h 56 % 0.00 in /  0 mm
17:09 79.0 °F /  26.1 °C 62.0 °F /  16.7 °C 29.83 in /  1010 hPa SE 1.2 mph /  1.9 km/h 4.6 mph /  7.4 km/h 56 % 0.00 in /  0 mm
17:14 78.9 °F /  26.1 °C 61.9 °F /  16.6 °C 29.82 in /  1009.7 hPa South 4.3 mph /  6.9 km/h 8.1 mph /  13 km/h 56 % 0.00 in /  0 mm
17:19 78.6 °F /  25.9 °C 61.6 °F /  16.4 °C 29.83 in /  1010 hPa South 3.2 mph /  5.1 km/h 4.6 mph /  7.4 km/h 56 % 0.00 in /  0 mm
17:24 78.4 °F /  25.8 °C 61.9 °F /  16.6 °C 29.83 in /  1010 hPa South 1.5 mph /  2.4 km/h 3.5 mph /  5.6 km/h 57 % 0.00 in /  0 mm
17:29 78.2 °F /  25.7 °C 62.2 °F /  16.8 °C 29.82 in /  1009.7 hPa SSE 3.6 mph /  5.8 km/h 10.4 mph /  16.7 km/h 58 % 0.00 in /  0 mm
17:34 77.9 °F /  25.5 °C 62.4 °F /  16.9 °C 29.82 in /  1009.7 hPa SE 1.0 mph /  1.6 km/h 3.0 mph /  4.8 km/h 59 % 0.00 in /  0 mm
17:39 77.6 °F /  25.3 °C 62.1 °F /  16.7 °C 29.82 in /  1009.7 hPa South 0.7 mph /  1.1 km/h 3.5 mph /  5.6 km/h 59 % 0.00 in /  0 mm
17:44 77.4 °F /  25.2 °C 61.9 °F /  16.6 °C 29.82 in /  1009.7 hPa SSE 1.0 mph /  1.6 km/h 5.0 mph /  8 km/h 59 % 0.00 in /  0 mm
17:49 77.2 °F /  25.1 °C 62.2 °F /  16.8 °C 29.82 in /  1009.7 hPa South 3.4 mph /  5.5 km/h 5.0 mph /  8 km/h 60 % 0.00 in /  0 mm
17:54 77.0 °F /  25 °C 62.5 °F /  16.9 °C 29.82 in /  1009.7 hPa South 0.8 mph /  1.3 km/h 2.3 mph /  3.7 km/h 61 % 0.00 in /  0 mm
17:59 76.7 °F /  24.8 °C 62.2 °F /  16.8 °C 29.81 in /  1009.4 hPa South 3.0 mph /  4.8 km/h 5.8 mph /  9.3 km/h 61 % 0.00 in /  0 mm
18:04 76.4 °F /  24.7 °C 62.0 °F /  16.7 °C 29.81 in /  1009.4 hPa SE 2.6 mph /  4.2 km/h 4.6 mph /  7.4 km/h 61 % 0.00 in /  0 mm
18:09 76.3 °F /  24.6 °C 62.3 °F /  16.8 °C 29.81 in /  1009.4 hPa SSW 1.6 mph /  2.6 km/h 3.5 mph /  5.6 km/h 62 % 0.00 in /  0 mm
18:14 76.1 °F /  24.5 °C 62.6 °F /  17 °C 29.81 in /  1009.4 hPa SSW 1.0 mph /  1.6 km/h 3.5 mph /  5.6 km/h 63 % 0.00 in /  0 mm
18:19 75.9 °F /  24.4 °C 62.8 °F /  17.1 °C 29.81 in /  1009.4 hPa SE 0.9 mph /  1.4 km/h 3.5 mph /  5.6 km/h 64 % 0.00 in /  0 mm
18:24 75.6 °F /  24.2 °C 62.6 °F /  17 °C 29.81 in /  1009.4 hPa Calm   1.2 mph /  1.9 km/h 64 % 0.00 in /  0 mm
18:29 75.5 °F /  24.2 °C 62.9 °F /  17.2 °C 29.82 in /  1009.7 hPa SSE 2.2 mph /  3.5 km/h 5.0 mph /  8 km/h 65 % 0.00 in /  0 mm
18:34 75.3 °F /  24.1 °C 63.2 °F /  17.3 °C 29.82 in /  1009.7 hPa SSE 1.1 mph /  1.8 km/h 3.0 mph /  4.8 km/h 66 % 0.00 in /  0 mm
18:39 75.1 °F /  23.9 °C 63.4 °F /  17.4 °C 29.81 in /  1009.4 hPa SSE 2.3 mph /  3.7 km/h 6.9 mph /  11.1 km/h 67 % 0.00 in /  0 mm
18:44 74.9 °F /  23.8 °C 63.6 °F /  17.6 °C 29.81 in /  1009.4 hPa South 2.0 mph /  3.2 km/h 4.6 mph /  7.4 km/h 68 % 0.00 in /  0 mm
18:49 74.6 °F /  23.7 °C 63.8 °F /  17.7 °C 29.81 in /  1009.4 hPa SSE 1.6 mph /  2.6 km/h 4.6 mph /  7.4 km/h 69 % 0.00 in /  0 mm
18:54 74.5 °F /  23.6 °C 64.1 °F /  17.8 °C 29.81 in /  1009.4 hPa SSW 1.7 mph /  2.7 km/h 3.5 mph /  5.6 km/h 70 % 0.00 in /  0 mm
18:59 74.3 °F /  23.5 °C 63.9 °F /  17.7 °C 29.81 in /  1009.4 hPa SW 2.8 mph /  4.5 km/h 7.0 mph /  11.3 km/h 70 % 0.00 in /  0 mm
19:04 74.1 °F /  23.4 °C 64.1 °F /  17.8 °C 29.81 in /  1009.4 hPa SSW 1.0 mph /  1.6 km/h 3.5 mph /  5.6 km/h 71 % 0.00 in /  0 mm
19:09 73.9 °F /  23.3 °C 64.3 °F /  17.9 °C 29.81 in /  1009.4 hPa South 2.2 mph /  3.5 km/h 3.5 mph /  5.6 km/h 72 % 0.00 in /  0 mm
19:14 73.7 °F /  23.2 °C 64.1 °F /  17.8 °C 29.81 in /  1009.4 hPa SSW 0.8 mph /  1.3 km/h 3.5 mph /  5.6 km/h 72 % 0.00 in /  0 mm
19:19 73.5 °F /  23.1 °C 64.3 °F /  17.9 °C 29.81 in /  1009.4 hPa SW 1.9 mph /  3.1 km/h 4.6 mph /  7.4 km/h 73 % 0.00 in /  0 mm
19:24 73.2 °F /  22.9 °C 64.4 °F /  18 °C 29.81 in /  1009.4 hPa SW 0.6 mph /  1 km/h 2.3 mph /  3.7 km/h 74 % 0.00 in /  0 mm
19:29 73.0 °F /  22.8 °C 64.2 °F /  17.9 °C 29.81 in /  1009.4 hPa SSW 2.0 mph /  3.2 km/h 3.5 mph /  5.6 km/h 74 % 0.00 in /  0 mm
19:34 72.8 °F /  22.7 °C 64.4 °F /  18 °C 29.81 in /  1009.4 hPa SSW 1.7 mph /  2.7 km/h 3.5 mph /  5.6 km/h 75 % 0.00 in /  0 mm
19:39 72.7 °F /  22.6 °C 64.7 °F /  18.2 °C 29.81 in /  1009.4 hPa SSW 1.6 mph /  2.6 km/h 3.0 mph /  4.8 km/h 76 % 0.00 in /  0 mm
19:44 72.5 °F /  22.5 °C 64.9 °F /  18.3 °C 29.81 in /  1009.4 hPa South 1.3 mph /  2.1 km/h 3.5 mph /  5.6 km/h 77 % 0.00 in /  0 mm
19:49 72.3 °F /  22.4 °C 64.7 °F /  18.2 °C 29.82 in /  1009.7 hPa SSE 1.2 mph /  1.9 km/h 3.5 mph /  5.6 km/h 77 % 0.00 in /  0 mm
19:54 72.1 °F /  22.3 °C 64.9 °F /  18.3 °C 29.82 in /  1009.7 hPa South 0.7 mph /  1.1 km/h 5.8 mph /  9.3 km/h 78 % 0.00 in /  0 mm
19:59 71.9 °F /  22.2 °C 65.0 °F /  18.3 °C 29.81 in /  1009.4 hPa South 0.1 mph /  0.2 km/h 1.2 mph /  1.9 km/h 79 % 0.00 in /  0 mm
20:04 71.8 °F /  22.1 °C 64.9 °F /  18.3 °C 29.81 in /  1009.4 hPa South 0.8 mph /  1.3 km/h 3.5 mph /  5.6 km/h 79 % 0.00 in /  0 mm
20:09 71.6 °F /  22 °C 64.7 °F /  18.2 °C 29.81 in /  1009.4 hPa SSE 0.3 mph /  0.5 km/h 1.2 mph /  1.9 km/h 79 % 0.00 in /  0 mm
20:15 71.5 °F /  21.9 °C 65.0 °F /  18.3 °C 29.81 in /  1009.4 hPa SSE 0.5 mph /  0.8 km/h 1.2 mph /  1.9 km/h 80 % 0.00 in /  0 mm
20:20 71.3 °F /  21.8 °C 64.8 °F /  18.2 °C 29.81 in /  1009.4 hPa SSE 0.7 mph /  1.1 km/h 2.3 mph /  3.7 km/h 80 % 0.00 in /  0 mm
20:25 71.2 °F /  21.8 °C 65.1 °F /  18.4 °C 29.81 in /  1009.4 hPa SSW 0.8 mph /  1.3 km/h 4.0 mph /  6.4 km/h 81 % 0.00 in /  0 mm
20:30 71.1 °F /  21.7 °C 65.0 °F /  18.3 °C 29.82 in /  1009.7 hPa SSW 0.8 mph /  1.3 km/h 3.5 mph /  5.6 km/h 81 % 0.00 in /  0 mm
20:35 71.1 °F /  21.7 °C 64.6 °F /  18.1 °C 29.81 in /  1009.4 hPa SW 0.8 mph /  1.3 km/h 2.0 mph /  3.2 km/h 80 % 0.00 in /  0 mm
20:40 70.9 °F /  21.6 °C 64.8 °F /  18.2 °C 29.81 in /  1009.4 hPa South 1.5 mph /  2.4 km/h 3.5 mph /  5.6 km/h 81 % 0.00 in /  0 mm
20:45 70.9 °F /  21.6 °C 64.8 °F /  18.2 °C 29.82 in /  1009.7 hPa SSW 1.8 mph /  2.9 km/h 6.9 mph /  11.1 km/h 81 % 0.00 in /  0 mm
20:50 70.8 °F /  21.6 °C 64.3 °F /  17.9 °C 29.81 in /  1009.4 hPa SSW 0.9 mph /  1.4 km/h 2.3 mph /  3.7 km/h 80 % 0.00 in /  0 mm
20:55 70.7 °F /  21.5 °C 64.6 °F /  18.1 °C 29.81 in /  1009.4 hPa SSW 0.4 mph /  0.6 km/h 3.5 mph /  5.6 km/h 81 % 0.00 in /  0 mm
21:00 70.6 °F /  21.4 °C 64.5 °F /  18.1 °C 29.82 in /  1009.7 hPa Calm   2.3 mph /  3.7 km/h 81 % 0.00 in /  0 mm
21:05 70.5 °F /  21.4 °C 64.4 °F /  18 °C 29.82 in /  1009.7 hPa SSW 0.3 mph /  0.5 km/h 3.5 mph /  5.6 km/h 81 % 0.00 in /  0 mm
21:10 70.5 °F /  21.4 °C 64.4 °F /  18 °C 29.81 in /  1009.4 hPa SSE 0.4 mph /  0.6 km/h 2.3 mph /  3.7 km/h 81 % 0.00 in /  0 mm
21:15 70.4 °F /  21.3 °C 64.3 °F /  17.9 °C 29.81 in /  1009.4 hPa SE 0.5 mph /  0.8 km/h 3.5 mph /  5.6 km/h 81 % 0.00 in /  0 mm
21:20 70.4 °F /  21.3 °C 64.3 °F /  17.9 °C 29.81 in /  1009.4 hPa SE 0.4 mph /  0.6 km/h 3.5 mph /  5.6 km/h 81 % 0.00 in /  0 mm
21:25 70.3 °F /  21.3 °C 64.2 °F /  17.9 °C 29.81 in /  1009.4 hPa SSE 3.3 mph /  5.3 km/h 4.6 mph /  7.4 km/h 81 % 0.00 in /  0 mm
21:30 70.3 °F /  21.3 °C 63.8 °F /  17.7 °C 29.81 in /  1009.4 hPa SSE 0.1 mph /  0.2 km/h 1.2 mph /  1.9 km/h 80 % 0.00 in /  0 mm
21:35 70.3 °F /  21.3 °C 63.8 °F /  17.7 °C 29.81 in /  1009.4 hPa WSW 2.4 mph /  3.9 km/h 4.6 mph /  7.4 km/h 80 % 0.00 in /  0 mm
21:40 70.3 °F /  21.3 °C 63.8 °F /  17.7 °C 29.81 in /  1009.4 hPa SSW 1.3 mph /  2.1 km/h 3.5 mph /  5.6 km/h 80 % 0.00 in /  0 mm
21:45 70.2 °F /  21.2 °C 63.7 °F /  17.6 °C 29.81 in /  1009.4 hPa South 1.1 mph /  1.8 km/h 3.5 mph /  5.6 km/h 80 % 0.00 in /  0 mm
21:50 70.1 °F /  21.2 °C 63.6 °F /  17.6 °C 29.81 in /  1009.4 hPa SW 1.4 mph /  2.3 km/h 4.0 mph /  6.4 km/h 80 % 0.00 in /  0 mm
21:55 70.1 °F /  21.2 °C 64.0 °F /  17.8 °C 29.81 in /  1009.4 hPa South 0.3 mph /  0.5 km/h 3.0 mph /  4.8 km/h 81 % 0.00 in /  0 mm
22:00 70.1 °F /  21.2 °C 64.0 °F /  17.8 °C 29.81 in /  1009.4 hPa SSW 1.2 mph /  1.9 km/h 2.3 mph /  3.7 km/h 81 % 0.00 in /  0 mm
22:05 70.0 °F /  21.1 °C 63.9 °F /  17.7 °C 29.81 in /  1009.4 hPa SW 1.0 mph /  1.6 km/h 3.5 mph /  5.6 km/h 81 % 0.00 in /  0 mm
22:10 70.0 °F /  21.1 °C 63.9 °F /  17.7 °C 29.81 in /  1009.4 hPa South 0.7 mph /  1.1 km/h 2.3 mph /  3.7 km/h 81 % 0.00 in /  0 mm
22:15 69.9 °F /  21.1 °C 64.2 °F /  17.9 °C 29.80 in /  1009 hPa SSW 0.9 mph /  1.4 km/h 3.5 mph /  5.6 km/h 82 % 0.00 in /  0 mm
22:20 69.9 °F /  21.1 °C 64.2 °F /  17.9 °C 29.80 in /  1009 hPa SSE 1.0 mph /  1.6 km/h 2.3 mph /  3.7 km/h 82 % 0.00 in /  0 mm
22:25 69.9 °F /  21.1 °C 64.2 °F /  17.9 °C 29.81 in /  1009.4 hPa South 0.6 mph /  1 km/h 3.5 mph /  5.6 km/h 82 % 0.00 in /  0 mm
22:31 69.8 °F /  21 °C 64.4 °F /  18 °C 29.81 in /  1009.4 hPa South 1.0 mph /  1.6 km/h 4.0 mph /  6.4 km/h 83 % 0.00 in /  0 mm
22:36 69.8 °F /  21 °C 64.4 °F /  18 °C 29.80 in /  1009 hPa South 1.0 mph /  1.6 km/h 3.0 mph /  4.8 km/h 83 % 0.00 in /  0 mm
22:41 69.7 °F /  20.9 °C 64.3 °F /  17.9 °C 29.80 in /  1009 hPa South 1.0 mph /  1.6 km/h 4.0 mph /  6.4 km/h 83 % 0.00 in /  0 mm
22:46 69.7 °F /  20.9 °C 64.3 °F /  17.9 °C 29.80 in /  1009 hPa Calm   4.0 mph /  6.4 km/h 83 % 0.00 in /  0 mm
22:51 69.7 °F /  20.9 °C 64.6 °F /  18.1 °C 29.81 in /  1009.4 hPa Calm   4.0 mph /  6.4 km/h 84 % 0.00 in /  0 mm
22:56 69.6 °F /  20.9 °C 64.6 °F /  18.1 °C 29.80 in /  1009 hPa South 1.0 mph /  1.6 km/h 3.0 mph /  4.8 km/h 84 % 0.00 in /  0 mm
23:01 69.6 °F /  20.9 °C 64.5 °F /  18.1 °C 29.80 in /  1009 hPa SW 1.1 mph /  1.8 km/h 2.3 mph /  3.7 km/h 84 % 0.00 in /  0 mm
23:06 69.5 °F /  20.8 °C 64.5 °F /  18.1 °C 29.80 in /  1009 hPa SSW 1.1 mph /  1.8 km/h 2.3 mph /  3.7 km/h 84 % 0.00 in /  0 mm
23:11 69.5 °F /  20.8 °C 64.8 °F /  18.2 °C 29.80 in /  1009 hPa SSE 0.7 mph /  1.1 km/h 1.2 mph /  1.9 km/h 85 % 0.00 in /  0 mm
23:16 69.4 °F /  20.8 °C 64.7 °F /  18.2 °C 29.80 in /  1009 hPa SW 1.1 mph /  1.8 km/h 3.5 mph /  5.6 km/h 85 % 0.00 in /  0 mm
23:21 69.3 °F /  20.7 °C 64.6 °F /  18.1 °C 29.80 in /  1009 hPa SSW 0.3 mph /  0.5 km/h 2.3 mph /  3.7 km/h 85 % 0.00 in /  0 mm
23:22 69.3 °F /  20.7 °C 64.6 °F /  18.1 °C 29.80 in /  1009 hPa SSW 0.7 mph /  1.1 km/h 3.0 mph /  4.8 km/h 85 % 0.00 in /  0 mm
23:24 69.3 °F /  20.7 °C 64.6 °F /  18.1 °C 29.80 in /  1009 hPa SSW 2.1 mph /  3.4 km/h 4.6 mph /  7.4 km/h 85 % 0.00 in /  0 mm
23:29 69.2 °F /  20.7 °C 64.8 °F /  18.2 °C 29.80 in /  1009 hPa SSW 0.9 mph /  1.4 km/h 4.0 mph /  6.4 km/h 86 % 0.00 in /  0 mm
23:34 69.2 °F /  20.7 °C 64.8 °F /  18.2 °C 29.80 in /  1009 hPa South 1.1 mph /  1.8 km/h 3.5 mph /  5.6 km/h 86 % 0.00 in /  0 mm
23:39 69.2 °F /  20.7 °C 64.8 °F /  18.2 °C 29.79 in /  1008.7 hPa SSE 1.7 mph /  2.7 km/h 4.6 mph /  7.4 km/h 86 % 0.00 in /  0 mm
23:44 69.1 °F /  20.6 °C 64.7 °F /  18.2 °C 29.80 in /  1009 hPa South 0.5 mph /  0.8 km/h 2.3 mph /  3.7 km/h 86 % 0.00 in /  0 mm
23:49 69.1 °F /  20.6 °C 64.7 °F /  18.2 °C 29.80 in /  1009 hPa SSW 0.2 mph /  0.3 km/h 3.5 mph /  5.6 km/h 86 % 0.00 in /  0 mm
23:54 69.1 °F /  20.6 °C 64.7 °F /  18.2 °C 29.80 in /  1009 hPa South 0.1 mph /  0.2 km/h 3.5 mph /  5.6 km/h 86 % 0.00 in /  0 mm
Crab Meadow Weather
Compliments of Weather Underground - 3 mb

Script developed by  Jim McMurry - jmcmurry@mwt.net Adapted for the template by  Wim van der Kuil - Leuven-Template.eu

Weather Terms: Flash Flood Warning - Flash flooding is occurring, imminent or highly likely. A flash flood is a flood that occurs within 6 hours of excessive rainfall and that poses a threat to life and/or property. Ice jams and dam failures can also cause flash floods. These warnings are issued on a county by county basis by the local Weather Forecast Office in Upton and are generally in effect for up to 6 hours.